LOWKLOWI

Guest
Details From LOWK - Klagenfurt Woerthersee
To LOWI - Innsbruck Kranebitten
Flight Number -
Tags Generated
Created
Modified
Stats Distance 128 nm / 237 km
Max Altitude 0 ft / 0 m
Waypoints 2
Social Downloads 1
Likes 0
Share VATSIM

Download

Looking for another format? Having issues loading an existing format? Contact us
Advertisement - Login to hide

Notes

Generated

Route

LOWK LOWI

ID Type Via Altitude Latitude Longitude Leg Dist Tot Dist Heading (true) Name
O LOWK APT - 0 ft / 0 m 46.64412˚ 14.32017˚ - 0 nm - -
O LOWI APT - 0 ft / 0 m 47.25883˚ 11.33091˚ 127 nm 127 nm 288° / 286° -

Altitude Profile

Advertisement - Login to hide

LOWK

Details ICAO LOWK (KLU)
Name Klagenfurt Woerthersee
Region Austria
Timezone Europe/Vienna (UTC+2.0)
Stats Elevation 1,470 ft / 448 m (AMSL)
Location 46.642851° 14.331169°
Runways 2
Magnetic Variation 3.711° E

METAR

LOWK 241350Z 28004KT 230V300 9999 -SHRA FEW015 FEW040CB BKN090 19/17 Q1018 NOSIG

Decode

TAF

TAF LOWK 241115Z 2412/2512 VRB02KT 9999 SCT040 SCT090 TX23/2512Z TN14/2503Z TEMPO 2412/2424 13007KT 7000 -SHRA FEW040CB BKN050 PROB40 TEMPO 2412/2420 VRB12G22KT 5000 TSRA SCT030CB BKN040 TEMPO 2502/2506 2000 BCFG SCT004 TEMPO 2510/2512 TS FEW040CB BKN050

Decode

Departure Runways

ID Width Length Bearing (true) Bearing (mag) Surface Threshold Offset Overrun Length
10L 148 ft / 45 m 8,903 ft / 2,714 m 106.32° 102.61° Concrete 656 ft / 200 m 0 ft / 0 m
10R 89 ft / 27 m 2,329 ft / 710 m 106.42° 102.71° Grass 197 ft / 60 m 0 ft / 0 m
28L 89 ft / 27 m 2,329 ft / 710 m 286.43° 282.72° Grass 197 ft / 60 m 0 ft / 0 m
28R 148 ft / 45 m 8,903 ft / 2,714 m 286.34° 282.63° Concrete 0 ft / 0 m 0 ft / 0 m

LOWI

Details ICAO LOWI (INN)
Name Innsbruck Kranebitten
Region Austria
Timezone Europe/Vienna (UTC+2.0)
Stats Elevation 1,906 ft / 581 m (AMSL)
Location 47.260226° 11.343967°
Runways 1
Magnetic Variation 3.071° E

METAR

LOWI 241350Z VRB02KT 9999 FEW030 SCT060 FEW060TCU BKN100 20/15 Q1017 TEMPO SHRA

Decode

TAF

TAF LOWI 241115Z 2412/2512 08007KT 9999 SCT050TCU BKN100 TX24/2512Z TN12/2504Z TEMPO 2412/2420 VRB15G25KT TSRA SCT070CB BKN080 BECMG 2419/2421 27004KT FEW010 TEMPO 2500/2507 BKN010 BECMG 2509/2511 08008KT FEW040

Decode

Destination Runways

ID Width Length Bearing (true) Bearing (mag) Surface Threshold Offset Overrun Length
08 148 ft / 45 m 6,545 ft / 1,995 m 81.02° 77.95° Asphalt 338 ft / 103 m 0 ft / 0 m
26 148 ft / 45 m 6,545 ft / 1,995 m 261.04° 257.97° Asphalt 0 ft / 0 m 0 ft / 0 m

Approach Navaids

Runway Type Ident Frequency Range Bearing (true) Bearing (mag) Slope Elevation
26 Localiser OEV 111.10 MHz 27 nm / 50 km 256.00° 252.93° - 1,906 ft / 581 m (AMSL)
26 Localiser OEJ 109.70 MHz 30 nm / 56 km 69.00° 65.93° - 1,906 ft / 581 m (AMSL)
26 Glidescope OEV 111.10 MHz 18 nm / 33 km 256.00° 252.93° 3.80° 1,911 ft / 582 m (AMSL)
26 DME OEJ 109.70 MHz 30 nm / 56 km - - - 1,906 ft / 581 m (AMSL)
26 DME OEV 111.10 MHz 27 nm / 50 km - - - 1,911 ft / 582 m (AMSL)

Popular Alternatives